createdAt,value
2018-07-22T00:00:34.894Z,97623.73
2018-07-22T00:03:04.113Z,97618.73
2018-07-22T00:05:33.323Z,97620.61
2018-07-22T00:08:02.574Z,97618.34
2018-07-22T00:10:31.720Z,97621.13
2018-07-22T00:13:01.093Z,97616.19
2018-07-22T00:15:30.393Z,97617.52
2018-07-22T00:17:59.193Z,97614.98
2018-07-22T00:20:28.541Z,97624.23
2018-07-22T00:22:57.870Z,97622.57
2018-07-22T00:25:27.023Z,97620.41
2018-07-22T00:27:56.003Z,97620.03
2018-07-22T00:30:25.329Z,97613.75
2018-07-22T00:32:54.377Z,97610.63
2018-07-22T00:35:23.646Z,97610.24
2018-07-22T00:37:52.800Z,97617.03
2018-07-22T00:40:22.051Z,97615.70
2018-07-22T00:42:51.183Z,97612.57
2018-07-22T00:45:20.422Z,97609.52
2018-07-22T00:47:49.204Z,97612.45
2018-07-22T00:50:18.218Z,97609.06
2018-07-22T00:52:47.498Z,97609.59
2018-07-22T00:55:16.553Z,97609.11
2018-07-22T00:57:45.717Z,97602.80
2018-07-22T01:00:14.742Z,97608.14
2018-07-22T01:02:44.000Z,97610.09
2018-07-22T01:05:13.201Z,97608.69
2018-07-22T01:07:42.331Z,97610.05
2018-07-22T01:10:11.486Z,97607.50
2018-07-22T01:12:40.710Z,97607.89
2018-07-22T01:15:09.871Z,97615.45
2018-07-22T01:17:38.900Z,97612.62
2018-07-22T01:20:08.537Z,97611.89
2018-07-22T01:22:37.403Z,97611.28
2018-07-22T01:25:06.415Z,97613.98
2018-07-22T01:27:35.965Z,97618.10
2018-07-22T01:30:06.337Z,97616.05
2018-07-22T01:32:35.638Z,97613.31
2018-07-22T01:35:05.030Z,97607.42
2018-07-22T01:37:34.263Z,97604.16
2018-07-22T01:40:03.314Z,97606.67
2018-07-22T01:42:32.468Z,97588.83
2018-07-22T01:45:02.292Z,97592.13
2018-07-22T01:47:31.547Z,97579.64
2018-07-22T01:50:00.458Z,97580.31
2018-07-22T01:52:29.718Z,97579.73
2018-07-22T01:54:59.065Z,97578.80
2018-07-22T01:57:28.300Z,97580.11
2018-07-22T01:59:57.423Z,97581.00
2018-07-22T02:02:26.589Z,97582.86
2018-07-22T02:04:55.590Z,97580.41
2018-07-22T02:07:24.357Z,97575.33
2018-07-22T02:09:53.518Z,97578.98
2018-07-22T02:12:22.668Z,97579.72
2018-07-22T02:14:51.753Z,97579.47
2018-07-22T02:17:20.795Z,97575.59
2018-07-22T02:19:49.641Z,97578.52
2018-07-22T02:22:18.634Z,97584.20
2018-07-22T02:24:47.767Z,97580.05
2018-07-22T02:27:16.820Z,97576.99
2018-07-22T02:29:45.913Z,97582.38
2018-07-22T02:32:15.095Z,97587.06
2018-07-22T02:34:44.155Z,97581.84
2018-07-22T02:37:13.207Z,97589.12
2018-07-22T02:39:42.360Z,97581.27
2018-07-22T02:42:11.490Z,97584.67
2018-07-22T02:44:40.769Z,97582.00
2018-07-22T02:47:09.625Z,97578.26
2018-07-22T02:49:38.772Z,97579.13
2018-07-22T02:52:07.926Z,97573.39
2018-07-22T02:54:37.026Z,97572.70
2018-07-22T02:57:06.731Z,97572.93
2018-07-22T02:59:35.900Z,97576.72
2018-07-22T03:02:05.211Z,97581.58
2018-07-22T03:04:34.368Z,97581.79
2018-07-22T03:07:03.272Z,97584.33
2018-07-22T03:09:32.196Z,97580.94
2018-07-22T03:12:01.078Z,97579.86
2018-07-22T03:14:30.368Z,97585.32
2018-07-22T03:16:59.255Z,97588.72
2018-07-22T03:19:28.303Z,97586.05
2018-07-22T03:21:57.505Z,97594.06
2018-07-22T03:24:26.702Z,97590.02
2018-07-22T03:26:55.480Z,97592.09
2018-07-22T03:29:24.811Z,97590.75
2018-07-22T03:31:53.586Z,97585.19
2018-07-22T03:34:22.672Z,97579.13
2018-07-22T03:36:51.995Z,97581.53
2018-07-22T03:39:21.297Z,97582.01
2018-07-22T03:41:50.380Z,97579.72
2018-07-22T03:44:19.325Z,97583.13
2018-07-22T03:46:48.351Z,97586.66
2018-07-22T03:49:17.576Z,97585.41
2018-07-22T03:51:46.766Z,97575.19
2018-07-22T03:54:16.002Z,97586.73
2018-07-22T03:56:45.283Z,97585.41
2018-07-22T03:59:14.553Z,97594.28
2018-07-22T04:01:43.879Z,97597.33
2018-07-22T04:04:13.022Z,97599.61
2018-07-22T04:06:42.160Z,97599.34
2018-07-22T04:09:11.754Z,97600.67
2018-07-22T04:11:41.050Z,97591.73
2018-07-22T04:14:09.865Z,97598.91
2018-07-22T04:16:38.991Z,97596.35
2018-07-22T04:19:07.862Z,97599.50
2018-07-22T04:21:36.940Z,97602.03
2018-07-22T04:24:06.314Z,97597.11
2018-07-22T04:26:35.610Z,97600.55
2018-07-22T04:29:04.794Z,97596.98
2018-07-22T04:31:33.859Z,97594.42
2018-07-22T04:34:03.193Z,97598.13
2018-07-22T04:36:32.329Z,97599.93
2018-07-22T04:39:01.375Z,97589.77
2018-07-22T04:41:30.651Z,97600.06
2018-07-22T04:43:59.925Z,97592.53
2018-07-22T04:46:29.059Z,97594.63
2018-07-22T04:48:57.776Z,97588.48
2018-07-22T04:51:27.071Z,97587.55
2018-07-22T04:53:56.243Z,97585.48
2018-07-22T04:56:25.203Z,97587.64
2018-07-22T04:58:54.322Z,97587.70
2018-07-22T05:01:23.567Z,97590.82
2018-07-22T05:03:52.762Z,97588.67
2018-07-22T05:06:21.998Z,97584.09
2018-07-22T05:08:51.125Z,97590.88
2018-07-22T05:11:20.452Z,97583.74
2018-07-22T05:13:49.482Z,97575.22
2018-07-22T05:16:18.667Z,97575.02
2018-07-22T05:18:47.739Z,97579.26
2018-07-22T05:21:16.542Z,97581.19
2018-07-22T05:23:45.628Z,97584.37
2018-07-22T05:26:14.533Z,97591.91
2018-07-22T05:28:43.373Z,97593.33
2018-07-22T05:31:12.417Z,97596.69
2018-07-22T05:33:41.460Z,97593.16
2018-07-22T05:36:10.500Z,97590.89
2018-07-22T05:38:39.702Z,97587.47
2018-07-22T05:41:08.869Z,97585.30
2018-07-22T05:43:38.017Z,97584.03
2018-07-22T05:46:07.053Z,97583.98
2018-07-22T05:48:36.451Z,97585.25
2018-07-22T05:51:05.547Z,97582.66
2018-07-22T05:53:34.716Z,97575.25
2018-07-22T05:56:04.006Z,97570.59
2018-07-22T05:58:33.201Z,97576.42
2018-07-22T06:01:02.026Z,97575.48
2018-07-22T06:03:30.970Z,97580.61
2018-07-22T06:05:59.819Z,97577.69
2018-07-22T06:08:28.758Z,97583.45
2018-07-22T06:10:57.722Z,97579.42
2018-07-22T06:13:26.828Z,97576.09
2018-07-22T06:15:56.182Z,97577.02
2018-07-22T06:18:25.023Z,97580.61
2018-07-22T06:20:54.117Z,97587.08
2018-07-22T06:23:23.262Z,97587.16
2018-07-22T06:25:52.206Z,97589.75
2018-07-22T06:28:21.275Z,97582.88
2018-07-22T06:30:50.304Z,97588.33
2018-07-22T06:33:19.307Z,97589.47
2018-07-22T06:35:48.550Z,97591.09
2018-07-22T06:38:17.475Z,97590.89
2018-07-22T06:40:46.689Z,97586.27
2018-07-22T06:43:15.915Z,97586.20
2018-07-22T06:45:45.193Z,97585.25
2018-07-22T06:48:14.407Z,97581.47
2018-07-22T06:50:43.443Z,97586.74
2018-07-22T06:53:12.788Z,97589.23
2018-07-22T06:55:41.955Z,97589.48
2018-07-22T06:58:11.279Z,97583.28
2018-07-22T07:00:40.078Z,97580.80
2018-07-22T07:03:08.954Z,97582.02
2018-07-22T07:05:38.182Z,97574.95
2018-07-22T07:08:07.333Z,97563.73
2018-07-22T07:10:36.238Z,97567.30
2018-07-22T07:13:05.451Z,97569.17
2018-07-22T07:15:34.750Z,97570.48
2018-07-22T07:18:03.560Z,97560.72
2018-07-22T07:20:32.313Z,97555.69
2018-07-22T07:23:01.290Z,97559.59
2018-07-22T07:25:30.562Z,97555.73
2018-07-22T07:27:59.636Z,97557.45
2018-07-22T07:30:28.720Z,97552.73
2018-07-22T07:32:57.770Z,97559.67
2018-07-22T07:35:26.761Z,97554.84
2018-07-22T07:37:55.906Z,97558.58
2018-07-22T07:40:24.878Z,97554.53
2018-07-22T07:42:53.966Z,97557.92
2018-07-22T07:45:23.206Z,97557.91
2018-07-22T07:47:52.199Z,97545.97
2018-07-22T07:50:21.334Z,97550.18
2018-07-22T07:52:50.587Z,97544.94
2018-07-22T07:55:19.399Z,97548.83
2018-07-22T07:57:48.586Z,97551.87
2018-07-22T08:00:17.908Z,97551.52
2018-07-22T08:02:46.988Z,97556.59
2018-07-22T08:05:16.192Z,97550.16
2018-07-22T08:07:45.453Z,97552.84
2018-07-22T08:10:14.531Z,97549.79
2018-07-22T08:12:43.689Z,97545.73
2018-07-22T08:15:12.788Z,97543.00
2018-07-22T08:17:42.099Z,97539.94
2018-07-22T08:20:11.303Z,97544.98
2018-07-22T08:22:40.510Z,97544.30
2018-07-22T08:25:09.881Z,97548.72
2018-07-22T08:27:39.168Z,97549.39
2018-07-22T08:30:08.118Z,97541.55
2018-07-22T08:32:37.131Z,97550.47
2018-07-22T08:35:06.427Z,97550.09
2018-07-22T08:37:35.827Z,97540.11
2018-07-22T08:40:05.382Z,97546.49
2018-07-22T08:42:34.838Z,97539.38
2018-07-22T08:45:04.233Z,97538.38
2018-07-22T08:47:33.582Z,97536.73
2018-07-22T08:50:02.571Z,97533.97
2018-07-22T08:52:31.844Z,97529.36
2018-07-22T08:55:01.164Z,97533.52
2018-07-22T08:57:30.423Z,97538.52
2018-07-22T08:59:59.721Z,97528.97
2018-07-22T09:02:28.914Z,97522.09
2018-07-22T09:04:58.049Z,97521.87
2018-07-22T09:07:27.274Z,97517.00
2018-07-22T09:09:56.722Z,97505.71
2018-07-22T09:12:25.660Z,97506.09
2018-07-22T09:14:56.092Z,97500.25
2018-07-22T09:17:25.494Z,97490.16
2018-07-22T09:19:54.928Z,97486.28
2018-07-22T09:22:24.203Z,97476.92
2018-07-22T09:24:53.397Z,97474.90
2018-07-22T09:27:22.455Z,97471.29
2018-07-22T09:29:51.763Z,97476.13
2018-07-22T09:32:21.134Z,97468.61
2018-07-22T09:34:50.268Z,97473.64
2018-07-22T09:37:19.258Z,97471.02
2018-07-22T09:39:48.596Z,97461.04
2018-07-22T09:42:17.482Z,97452.95
2018-07-22T09:44:46.912Z,97460.56
2018-07-22T09:47:16.131Z,97464.83
2018-07-22T09:49:45.512Z,97462.30
2018-07-22T09:52:14.475Z,97459.03
2018-07-22T09:54:43.679Z,97453.59
2018-07-22T09:57:13.749Z,97452.64
2018-07-22T09:59:42.942Z,97444.61
2018-07-22T10:02:12.368Z,97451.62
2018-07-22T10:04:41.795Z,97445.97
2018-07-22T10:07:11.172Z,97450.45
2018-07-22T10:09:40.236Z,97442.69
2018-07-22T10:12:09.284Z,97442.68
2018-07-22T10:14:38.627Z,97438.81
2018-07-22T10:17:08.524Z,97430.84
2018-07-22T10:19:38.900Z,97429.00
2018-07-22T10:22:08.348Z,97427.98
2018-07-22T10:24:37.807Z,97427.92
2018-07-22T10:27:08.123Z,97419.97
2018-07-22T10:29:37.407Z,97424.39
2018-07-22T10:32:07.072Z,97417.48
2018-07-22T10:34:36.104Z,97415.25
2018-07-22T10:37:05.361Z,97413.20
2018-07-22T10:39:34.353Z,97413.80
2018-07-22T10:42:03.432Z,97403.40
2018-07-22T10:44:32.775Z,97403.19
2018-07-22T10:47:02.874Z,97400.97
2018-07-22T10:49:32.206Z,97390.48
2018-07-22T10:52:01.351Z,97392.66
2018-07-22T10:54:30.774Z,97388.52
2018-07-22T10:57:00.025Z,97385.77
2018-07-22T10:59:29.319Z,97380.79
2018-07-22T11:01:58.605Z,97372.45
2018-07-22T11:04:28.044Z,97365.77
2018-07-22T11:06:57.645Z,97366.42
2018-07-22T11:09:27.034Z,97362.11
2018-07-22T11:11:56.425Z,97360.76
2018-07-22T11:14:25.967Z,97353.84
2018-07-22T11:16:55.351Z,97352.61
2018-07-22T11:19:24.270Z,97337.44
2018-07-22T11:21:53.567Z,97331.29
2018-07-22T11:27:06.443Z,97333.78
2018-07-22T11:29:36.086Z,97332.39
2018-07-22T11:32:05.350Z,97331.90
2018-07-22T11:34:34.620Z,97321.94
2018-07-22T11:37:04.077Z,97325.98
2018-07-22T11:39:33.838Z,97323.26
2018-07-22T11:42:02.918Z,97322.80
2018-07-22T11:44:31.979Z,97323.94
2018-07-22T11:47:01.181Z,97318.86
2018-07-22T11:49:30.083Z,97312.45
2018-07-22T11:51:59.329Z,97301.84
2018-07-22T11:54:28.320Z,97304.31
2018-07-22T11:56:57.715Z,97295.36
2018-07-22T11:59:27.044Z,97292.05
2018-07-22T12:01:56.870Z,97285.91
2018-07-22T12:04:26.065Z,97288.64
2018-07-22T12:06:55.585Z,97276.09
2018-07-22T12:09:25.096Z,97282.06
2018-07-22T12:11:54.082Z,97277.38
2018-07-22T12:14:23.148Z,97273.23
2018-07-22T12:16:52.372Z,97278.62
2018-07-22T12:19:21.771Z,97273.98
2018-07-22T12:21:50.959Z,97273.11
2018-07-22T12:24:20.346Z,97263.63
2018-07-22T12:26:49.382Z,97253.72
2018-07-22T12:29:18.653Z,97249.70
2018-07-22T12:31:47.879Z,97253.61
2018-07-22T12:34:17.185Z,97253.14
2018-07-22T12:36:46.476Z,97254.27
2018-07-22T12:39:16.110Z,97250.46
2018-07-22T12:41:45.457Z,97245.45
2018-07-22T12:44:14.747Z,97248.23
2018-07-22T12:46:44.041Z,97247.80
2018-07-22T12:49:13.423Z,97237.68
2018-07-22T12:51:42.689Z,97237.42
2018-07-22T12:54:12.098Z,97232.34
2018-07-22T12:56:41.279Z,97232.90
2018-07-22T12:59:10.730Z,97228.06
2018-07-22T13:01:39.985Z,97224.09
2018-07-22T13:04:09.351Z,97220.01
2018-07-22T13:06:38.539Z,97219.75
2018-07-22T13:09:09.769Z,97224.73
2018-07-22T13:11:39.072Z,97211.28
2018-07-22T13:14:08.549Z,97200.17
2018-07-22T13:16:37.816Z,97201.58
2018-07-22T13:19:07.226Z,97193.31
2018-07-22T13:21:37.521Z,97181.31
2018-07-22T13:24:08.588Z,97171.89
2018-07-22T13:26:37.949Z,97169.53
2018-07-22T13:29:07.340Z,97176.92
2018-07-22T13:31:36.645Z,97177.05
2018-07-22T13:34:06.073Z,97183.41
2018-07-22T13:36:35.537Z,97191.83
2018-07-22T13:39:07.295Z,97202.27
2018-07-22T13:41:36.759Z,97196.27
2018-07-22T13:44:06.059Z,97190.11
2018-07-22T13:46:35.297Z,97190.28
2018-07-22T13:49:04.536Z,97184.77
2018-07-22T13:51:33.688Z,97175.91
2018-07-22T13:54:03.130Z,97174.89
2018-07-22T13:56:32.414Z,97176.26
2018-07-22T13:59:01.889Z,97177.73
2018-07-22T14:01:31.192Z,97177.55
2018-07-22T14:04:00.702Z,97173.05
2018-07-22T14:06:29.935Z,97166.81
2018-07-22T14:08:59.362Z,97154.80
2018-07-22T14:11:28.740Z,97137.09
2018-07-22T14:13:58.073Z,97138.13
2018-07-22T14:16:27.487Z,97143.47
2018-07-22T14:18:56.727Z,97150.30
2018-07-22T14:21:25.924Z,97143.23
2018-07-22T14:23:55.190Z,97149.30
2018-07-22T14:26:24.184Z,97150.94
2018-07-22T14:28:53.194Z,97140.95
2018-07-22T14:31:22.406Z,97134.66
2018-07-22T14:33:51.767Z,97127.07
2018-07-22T14:36:21.828Z,97125.03
2018-07-22T14:38:51.185Z,97131.74
2018-07-22T14:41:20.419Z,97133.75
2018-07-22T14:43:49.820Z,97132.88
2018-07-22T14:46:19.192Z,97116.34
2018-07-22T14:48:48.089Z,97107.07
2018-07-22T14:51:17.487Z,97118.26
2018-07-22T14:53:46.955Z,97128.11
2018-07-22T14:56:16.373Z,97130.55
2018-07-22T14:58:45.710Z,97117.19
2018-07-22T15:01:14.866Z,97104.77
2018-07-22T15:03:44.660Z,97111.87
2018-07-22T15:06:13.967Z,97115.77
2018-07-22T15:08:43.699Z,97111.23
2018-07-22T15:11:12.601Z,97107.09
2018-07-22T15:13:41.909Z,97106.13
2018-07-22T15:16:11.222Z,97094.02
2018-07-22T15:18:40.672Z,97092.23
2018-07-22T15:21:10.038Z,97096.47
2018-07-22T15:23:38.964Z,97100.64
2018-07-22T15:26:08.467Z,97095.17
2018-07-22T15:28:37.578Z,97090.67
2018-07-22T15:31:06.755Z,97080.66
2018-07-22T15:33:36.049Z,97080.17
2018-07-22T15:36:05.437Z,97073.27
2018-07-22T15:38:34.316Z,97073.89
2018-07-22T15:41:03.658Z,97068.63
2018-07-22T15:43:33.067Z,97078.99
2018-07-22T15:46:02.228Z,97071.03
2018-07-22T15:48:31.613Z,97083.91
2018-07-22T15:51:00.984Z,97077.01
2018-07-22T15:53:30.107Z,97079.50
2018-07-22T15:55:59.044Z,97075.55
2018-07-22T15:58:28.538Z,97080.98
2018-07-22T16:00:57.802Z,97073.78
2018-07-22T16:03:26.850Z,97089.14
2018-07-22T16:05:55.917Z,97091.97
2018-07-22T16:08:25.196Z,97102.11
2018-07-22T16:10:54.413Z,97104.50
2018-07-22T16:13:23.620Z,97101.80
2018-07-22T16:15:53.131Z,97107.80
2018-07-22T16:18:22.220Z,97123.09
2018-07-22T16:20:51.587Z,97124.66
2018-07-22T16:23:20.816Z,97114.19
2018-07-22T16:25:50.084Z,97116.18
2018-07-22T16:28:19.079Z,97125.29
2018-07-22T16:30:48.265Z,97123.62
2018-07-22T16:33:17.505Z,97126.92
2018-07-22T16:35:46.769Z,97126.08
2018-07-22T16:38:16.094Z,97124.05
2018-07-22T16:40:45.388Z,97134.25
2018-07-22T16:43:14.735Z,97127.13
2018-07-22T16:45:43.682Z,97127.88
2018-07-22T16:48:12.848Z,97131.25
2018-07-22T16:50:42.046Z,97123.37
2018-07-22T16:53:11.248Z,97121.45
2018-07-22T16:55:40.512Z,97133.86
2018-07-22T16:58:09.828Z,97138.79
2018-07-22T17:00:39.288Z,97149.05
2018-07-22T17:03:08.456Z,97151.73
2018-07-22T17:05:37.967Z,97151.77
2018-07-22T17:08:07.416Z,97151.30
2018-07-22T17:10:36.640Z,97146.15
2018-07-22T17:13:05.820Z,97155.83
2018-07-22T17:15:34.950Z,97157.43
2018-07-22T17:18:03.952Z,97156.36
2018-07-22T17:20:33.011Z,97154.38
2018-07-22T17:23:02.185Z,97161.29
2018-07-22T17:25:31.447Z,97169.20
2018-07-22T17:28:00.670Z,97178.45
2018-07-22T17:30:30.031Z,97191.27
2018-07-22T17:32:59.280Z,97194.48
2018-07-22T17:35:28.185Z,97206.45
2018-07-22T17:37:57.578Z,97208.09
2018-07-22T17:40:26.615Z,97220.26
2018-07-22T17:42:56.010Z,97223.84
2018-07-22T17:45:25.273Z,97217.47
2018-07-22T17:47:54.815Z,97216.20
2018-07-22T17:50:24.275Z,97210.28
2018-07-22T17:52:53.472Z,97201.82
2018-07-22T17:55:22.444Z,97210.01
2018-07-22T17:57:51.767Z,97207.57
2018-07-22T18:00:21.092Z,97210.47
2018-07-22T18:02:57.856Z,97209.17
2018-07-22T18:05:27.429Z,97220.59
2018-07-22T18:07:56.839Z,97232.52
2018-07-22T18:10:25.996Z,97231.77
2018-07-22T18:12:55.334Z,97231.34
2018-07-22T18:15:24.602Z,97231.05
2018-07-22T18:17:53.926Z,97235.11
2018-07-22T18:20:23.165Z,97228.48
2018-07-22T18:22:52.319Z,97222.28
2018-07-22T18:25:21.686Z,97213.70
2018-07-22T18:27:50.915Z,97217.12
2018-07-22T18:30:20.432Z,97221.84
2018-07-22T18:32:49.608Z,97213.80
2018-07-22T18:35:18.802Z,97211.45
2018-07-22T18:37:47.904Z,97219.58
2018-07-22T18:40:17.111Z,97231.87
2018-07-22T18:42:46.328Z,97222.94
2018-07-22T18:45:15.509Z,97210.17
2018-07-22T18:47:44.492Z,97207.46
2018-07-22T18:50:13.769Z,97202.69
2018-07-22T18:52:42.752Z,97199.00
2018-07-22T18:55:11.972Z,97202.37
2018-07-22T18:57:41.366Z,97210.45
2018-07-22T19:00:10.448Z,97219.86
2018-07-22T19:02:39.729Z,97230.64
2018-07-22T19:05:08.937Z,97238.20
2018-07-22T19:07:38.325Z,97239.72
2018-07-22T19:10:07.717Z,97250.35
2018-07-22T19:12:36.915Z,97259.47
2018-07-22T19:15:06.399Z,97255.58
2018-07-22T19:17:35.948Z,97255.07
2018-07-22T19:20:05.611Z,97249.99
2018-07-22T19:22:35.112Z,97244.12
2018-07-22T19:25:04.815Z,97242.75
2018-07-22T19:27:35.269Z,97245.95
2018-07-22T19:30:04.632Z,97253.20
2018-07-22T19:32:33.639Z,97263.30
2018-07-22T19:35:03.087Z,97259.95
2018-07-22T19:37:32.577Z,97269.38
2018-07-22T19:40:01.997Z,97273.09
2018-07-22T19:42:31.179Z,97274.06
2018-07-22T19:45:00.188Z,97277.08
2018-07-22T19:47:29.500Z,97282.48
2018-07-22T19:49:58.685Z,97290.81
2018-07-22T19:52:27.725Z,97288.45
2018-07-22T19:54:56.932Z,97281.70
2018-07-22T19:57:26.096Z,97274.28
2018-07-22T19:59:55.539Z,97287.36
2018-07-22T20:02:25.272Z,97298.13
2018-07-22T20:04:54.373Z,97307.34
2018-07-22T20:07:23.781Z,97314.61
2018-07-22T20:09:53.200Z,97318.87
2018-07-22T20:12:22.904Z,97320.66
2018-07-22T20:14:52.335Z,97320.66
2018-07-22T20:17:21.551Z,97309.92
2018-07-22T20:19:50.851Z,97287.20
2018-07-22T20:22:19.830Z,97265.87
2018-07-22T20:24:49.237Z,97254.52
2018-07-22T20:27:18.668Z,97266.16
2018-07-22T20:29:47.988Z,97278.67
2018-07-22T20:32:17.289Z,97271.79
2018-07-22T20:34:47.239Z,97266.25
2018-07-22T20:37:16.661Z,97274.58
2018-07-22T20:39:45.876Z,97282.67
2018-07-22T20:42:15.027Z,97285.33
2018-07-22T20:44:44.618Z,97281.98
2018-07-22T20:47:13.933Z,97288.13
2018-07-22T20:49:43.050Z,97298.74
2018-07-22T20:52:12.249Z,97301.58
2018-07-22T20:54:41.651Z,97301.38
2018-07-22T20:57:11.113Z,97304.58
2018-07-22T20:59:40.349Z,97303.90
2018-07-22T21:02:09.758Z,97313.66
2018-07-22T21:04:38.959Z,97316.09
2018-07-22T21:07:08.347Z,97315.33
2018-07-22T21:09:37.587Z,97306.58
2018-07-22T21:12:46.967Z,97299.62
2018-07-22T21:15:16.853Z,97306.83
2018-07-22T21:17:47.219Z,97302.65
2018-07-22T21:20:17.517Z,97293.34
2018-07-22T21:22:46.779Z,97285.14
2018-07-22T21:25:16.547Z,97277.37
2018-07-22T21:27:45.743Z,97277.73
2018-07-22T21:30:15.381Z,97272.19
2018-07-22T21:32:44.343Z,97259.63
2018-07-22T21:35:13.641Z,97246.55
2018-07-22T21:37:42.927Z,97245.98
2018-07-22T21:40:12.130Z,97246.64
2018-07-22T21:42:41.378Z,97260.55
2018-07-22T21:45:10.512Z,97262.53
2018-07-22T21:47:39.875Z,97257.08
2018-07-22T21:50:09.201Z,97254.58
2018-07-22T21:52:38.571Z,97254.42
2018-07-22T21:55:07.891Z,97261.23
2018-07-22T21:57:37.443Z,97267.78
2018-07-22T22:00:13.640Z,97254.38
2018-07-22T22:02:43.008Z,97264.27
2018-07-22T22:05:12.379Z,97264.28
2018-07-22T22:07:41.697Z,97268.67
2018-07-22T22:10:11.113Z,97270.74
2018-07-22T22:12:40.329Z,97273.73
2018-07-22T22:15:19.521Z,97266.41
2018-07-22T22:17:49.025Z,97268.48
2018-07-22T22:20:18.113Z,97261.53
2018-07-22T22:22:47.380Z,97245.55
2018-07-22T22:25:16.699Z,97242.54
2018-07-22T22:27:45.988Z,97232.84
2018-07-22T22:30:16.347Z,97238.52
2018-07-22T22:32:46.146Z,97223.40
2018-07-22T22:35:15.652Z,97219.67
2018-07-22T22:37:45.503Z,97216.22
2018-07-22T22:40:15.599Z,97222.62
2018-07-22T22:42:45.973Z,97221.23
2018-07-22T22:45:15.735Z,97226.08
2018-07-22T22:47:45.013Z,97221.28
2018-07-22T22:50:14.181Z,97227.82
2018-07-22T22:52:43.347Z,97235.36
2018-07-22T22:55:12.607Z,97247.94
2018-07-22T22:57:51.718Z,97247.19
2018-07-22T23:00:21.224Z,97242.87
2018-07-22T23:02:50.533Z,97247.86
2018-07-22T23:05:19.880Z,97246.33
2018-07-22T23:07:48.891Z,97245.92
2018-07-22T23:10:18.195Z,97243.97
2018-07-22T23:12:47.379Z,97230.05
2018-07-22T23:15:16.360Z,97235.24
2018-07-22T23:17:45.573Z,97241.02
2018-07-22T23:20:14.770Z,97243.70
2018-07-22T23:22:43.947Z,97251.59
2018-07-22T23:25:13.302Z,97252.58
2018-07-22T23:27:42.599Z,97260.50
2018-07-22T23:30:11.893Z,97271.28
2018-07-22T23:32:41.157Z,97263.89
2018-07-22T23:35:10.502Z,97258.33
2018-07-22T23:37:39.897Z,97265.52
2018-07-22T23:40:09.288Z,97267.43
2018-07-22T23:42:38.503Z,97262.14
2018-07-22T23:45:07.501Z,97264.70
2018-07-22T23:47:36.746Z,97262.28
2018-07-22T23:50:06.362Z,97273.40
2018-07-22T23:52:35.743Z,97281.03
2018-07-22T23:55:04.825Z,97281.91
2018-07-22T23:57:34.128Z,97279.55
